CheckWX is a tool to help pilots better visualize weather data.  It is not intended as a substitute for an official pre-flight weather briefing.

22:27:17 UTC

EFRO METAR
Rovaniemi Airport
Rovaniemi, Finland
Current

37 mins ago

EFRO 202150Z AUTO 24009KT CAVOK 15/09 Q1016
Observed
Jul-20 @ 21:50 UTC
Wind
  • 240° at 9 KTS
Visibility
10,000+ meters
Flight Rules
VFR
Cloud Levels
  • Clear skies
Temperature
15°C / 59°F
Dewpoint
C / 48°F
Humidity
68%
Altimeter
30" Hg
Pressure
1015.92 hPa
Previous

1 hour ago

EFRO 202120Z AUTO 24009KT CAVOK 15/09 Q1016
Observed
Jul-20 @ 21:20 UTC
Wind
  • 240° at 9 KTS
Visibility
10,000+ meters
Flight Rules
VFR
Cloud Levels
  • Clear skies
Temperature
15°C / 59°F
Dewpoint
C / 48°F
Humidity
68%
Altimeter
30" Hg
Pressure
1015.92 hPa
Previous

2 hours ago

EFRO 202050Z AUTO 23008KT CAVOK 16/09 Q1016
Observed
Jul-20 @ 20:50 UTC
Wind
  • 230° at 8 KTS
Visibility
10,000+ meters
Flight Rules
VFR
Cloud Levels
  • Clear skies
Temperature
16°C / 61°F
Dewpoint
C / 48°F
Humidity
63%
Altimeter
30" Hg
Pressure
1015.92 hPa